createdAt,value
2018-01-11T00:02:24.924Z,93.75
2018-01-11T00:04:52.387Z,94.13
2018-01-11T00:07:19.933Z,94.00
2018-01-11T00:09:47.396Z,94.31
2018-01-11T00:12:14.862Z,94.27
2018-01-11T00:14:42.317Z,94.05
2018-01-11T00:17:09.793Z,94.15
2018-01-11T00:19:37.352Z,93.83
2018-01-11T00:22:04.806Z,94.16
2018-01-11T00:24:32.260Z,94.13
2018-01-11T00:26:59.713Z,94.00
2018-01-11T00:29:27.181Z,94.08
2018-01-11T00:31:54.711Z,94.13
2018-01-11T00:34:22.161Z,93.88
2018-01-11T00:36:49.624Z,93.72
2018-01-11T00:39:17.109Z,93.51
2018-01-11T00:41:44.559Z,93.14
2018-01-11T00:44:12.018Z,93.14
2018-01-11T00:46:39.540Z,93.19
2018-01-11T00:49:07.004Z,93.37
2018-01-11T00:51:34.462Z,93.19
2018-01-11T00:54:01.929Z,93.18
2018-01-11T00:56:29.428Z,93.15
2018-01-11T00:58:56.983Z,93.24
2018-01-11T01:01:24.428Z,93.17
2018-01-11T01:03:51.959Z,93.34
2018-01-11T01:06:19.428Z,93.22
2018-01-11T01:08:46.886Z,93.34
2018-01-11T01:11:14.355Z,93.23
2018-01-11T01:13:41.802Z,92.88
2018-01-11T01:16:09.365Z,93.20
2018-01-11T01:18:36.814Z,93.17
2018-01-11T01:21:04.296Z,93.00
2018-01-11T01:23:31.744Z,93.25
2018-01-11T01:25:59.202Z,92.84
2018-01-11T01:28:26.719Z,92.68
2018-01-11T01:30:54.192Z,92.87
2018-01-11T01:33:21.658Z,92.85
2018-01-11T01:35:49.125Z,92.79
2018-01-11T01:38:16.601Z,92.71
2018-01-11T01:40:44.059Z,92.76
2018-01-11T01:43:11.520Z,92.81
2018-01-11T01:45:38.974Z,92.66
2018-01-11T01:48:06.433Z,92.37
2018-01-11T01:50:33.889Z,92.51
2018-01-11T01:53:01.346Z,92.71
2018-01-11T01:55:28.795Z,92.36
2018-01-11T01:57:56.266Z,92.65
2018-01-11T02:00:23.731Z,92.51
2018-01-11T02:02:51.212Z,92.39
2018-01-11T02:05:18.666Z,92.47
2018-01-11T02:07:46.117Z,93.04
2018-01-11T02:10:13.600Z,92.77
2018-01-11T02:12:41.050Z,92.88
2018-01-11T02:15:08.505Z,92.97
2018-01-11T02:17:35.974Z,92.91
2018-01-11T02:20:03.477Z,92.80
2018-01-11T02:22:30.950Z,92.77
2018-01-11T02:24:58.409Z,92.67
2018-01-11T02:27:25.868Z,92.67
2018-01-11T02:29:53.345Z,92.50
2018-01-11T02:32:21.749Z,92.69
2018-01-11T02:34:49.238Z,92.78
2018-01-11T02:37:16.726Z,92.78
2018-01-11T02:39:44.185Z,93.15
2018-01-11T02:42:11.632Z,93.39
2018-01-11T02:44:39.106Z,93.44
2018-01-11T02:47:06.558Z,93.48
2018-01-11T02:49:34.018Z,93.49
2018-01-11T02:52:01.477Z,93.42
2018-01-11T02:54:28.973Z,93.39
2018-01-11T02:56:56.429Z,93.26
2018-01-11T02:59:23.922Z,93.37
2018-01-11T03:01:51.481Z,93.45
2018-01-11T03:04:18.946Z,93.44
2018-01-11T03:06:46.412Z,93.39
2018-01-11T03:09:13.859Z,93.33
2018-01-11T03:11:41.329Z,93.12
2018-01-11T03:14:08.788Z,92.88
2018-01-11T03:16:36.309Z,92.78
2018-01-11T03:19:03.786Z,92.74
2018-01-11T03:21:31.257Z,92.82
2018-01-11T03:23:58.703Z,92.92
2018-01-11T03:26:26.174Z,92.95
2018-01-11T03:28:53.624Z,92.93
2018-01-11T03:31:21.107Z,92.99
2018-01-11T03:33:48.595Z,93.11
2018-01-11T03:36:16.048Z,93.15
2018-01-11T03:38:43.535Z,93.22
2018-01-11T03:41:10.986Z,93.24
2018-01-11T03:43:38.456Z,93.23
2018-01-11T03:46:06.717Z,93.39
2018-01-11T03:48:34.183Z,93.49
2018-01-11T03:51:01.677Z,93.41
2018-01-11T03:53:29.144Z,93.42
2018-01-11T03:55:56.609Z,93.37
2018-01-11T03:58:24.079Z,93.36
2018-01-11T04:00:51.528Z,93.43
2018-01-11T04:03:19.016Z,93.45
2018-01-11T04:05:46.473Z,93.47
2018-01-11T04:08:13.920Z,93.51
2018-01-11T04:10:41.390Z,93.51
2018-01-11T04:13:08.924Z,93.43
2018-01-11T04:15:36.396Z,93.46
2018-01-11T04:18:03.851Z,93.42
2018-01-11T04:20:31.325Z,93.33
2018-01-11T04:22:58.781Z,92.97
2018-01-11T04:25:26.474Z,92.98
2018-01-11T04:27:53.936Z,93.02
2018-01-11T04:30:21.406Z,92.83
2018-01-11T04:32:48.904Z,93.10
2018-01-11T04:35:16.388Z,92.94
2018-01-11T04:37:43.828Z,92.75
2018-01-11T04:40:11.300Z,92.79
2018-01-11T04:42:38.758Z,92.78
2018-01-11T04:45:06.213Z,92.85
2018-01-11T04:47:33.679Z,92.52
2018-01-11T04:50:01.138Z,92.58
2018-01-11T04:52:28.598Z,92.68
2018-01-11T04:54:56.047Z,92.74
2018-01-11T04:57:23.500Z,92.59
2018-01-11T04:59:50.970Z,92.58
2018-01-11T05:02:18.537Z,92.53
2018-01-11T05:04:45.994Z,92.54
2018-01-11T05:07:13.451Z,92.59
2018-01-11T05:09:40.944Z,92.73
2018-01-11T05:12:08.406Z,92.71
2018-01-11T05:14:35.872Z,92.69
2018-01-11T05:17:03.318Z,92.71
2018-01-11T05:19:30.792Z,92.86
2018-01-11T05:21:58.248Z,93.07
2018-01-11T05:24:25.764Z,93.04
2018-01-11T05:26:53.274Z,93.15
2018-01-11T05:29:20.827Z,93.04
2018-01-11T05:31:48.278Z,92.98
2018-01-11T05:34:15.755Z,92.97
2018-01-11T05:36:43.326Z,92.93
2018-01-11T05:39:10.783Z,92.79
2018-01-11T05:41:38.251Z,92.99
2018-01-11T05:44:05.712Z,93.08
2018-01-11T05:46:33.184Z,93.23
2018-01-11T05:49:00.675Z,93.50
2018-01-11T05:51:28.131Z,93.47
2018-01-11T05:53:55.579Z,94.72
2018-01-11T05:56:23.056Z,94.06
2018-01-11T05:58:50.532Z,90.29
2018-01-11T06:01:17.983Z,87.60
2018-01-11T06:03:45.471Z,88.13
2018-01-11T06:06:12.932Z,87.50
2018-01-11T06:08:40.407Z,88.12
2018-01-11T06:11:07.852Z,88.98
2018-01-11T06:13:35.321Z,89.52
2018-01-11T06:16:02.795Z,90.06
2018-01-11T06:18:30.269Z,90.32
2018-01-11T06:20:57.720Z,90.66
2018-01-11T06:23:25.259Z,90.92
2018-01-11T06:25:52.708Z,91.17
2018-01-11T06:28:20.204Z,91.52
2018-01-11T06:30:47.668Z,91.82
2018-01-11T06:33:15.229Z,92.02
2018-01-11T06:35:42.701Z,92.39
2018-01-11T06:38:10.164Z,92.43
2018-01-11T06:40:37.652Z,92.54
2018-01-11T06:43:05.090Z,92.61
2018-01-11T06:45:32.538Z,92.84
2018-01-11T06:47:59.992Z,92.96
2018-01-11T06:50:27.459Z,93.25
2018-01-11T06:52:54.933Z,93.32
2018-01-11T06:55:22.469Z,93.34
2018-01-11T06:57:49.990Z,93.34
2018-01-11T07:00:17.481Z,93.50
2018-01-11T07:02:44.950Z,93.73
2018-01-11T07:05:12.448Z,93.75
2018-01-11T07:07:39.901Z,93.48
2018-01-11T07:10:07.354Z,93.60
2018-01-11T07:12:34.810Z,93.62
2018-01-11T07:15:02.260Z,93.65
2018-01-11T07:17:29.737Z,93.68
2018-01-11T07:19:57.194Z,93.75
2018-01-11T07:22:24.660Z,93.79
2018-01-11T07:24:52.113Z,93.84
2018-01-11T07:27:19.576Z,93.83
2018-01-11T07:29:47.032Z,93.65
2018-01-11T07:32:14.669Z,93.74
2018-01-11T07:34:42.230Z,93.70
2018-01-11T07:37:09.783Z,93.70
2018-01-11T07:39:37.290Z,93.72
2018-01-11T07:42:04.764Z,93.54
2018-01-11T07:44:32.253Z,93.42
2018-01-11T07:46:59.742Z,93.16
2018-01-11T07:49:27.208Z,92.98
2018-01-11T07:51:54.797Z,92.79
2018-01-11T07:54:22.260Z,92.71
2018-01-11T07:56:49.811Z,92.53
2018-01-11T07:59:17.392Z,92.24
2018-01-11T08:01:44.953Z,92.26
2018-01-11T08:04:12.844Z,92.08
2018-01-11T08:06:40.313Z,91.86
2018-01-11T08:09:07.782Z,91.51
2018-01-11T08:11:35.296Z,91.82
2018-01-11T08:14:02.754Z,91.67
2018-01-11T08:16:30.220Z,91.37
2018-01-11T08:18:57.764Z,90.84
2018-01-11T08:21:25.226Z,90.41
2018-01-11T08:23:52.703Z,89.53
2018-01-11T08:26:20.242Z,89.00
2018-01-11T08:28:47.737Z,88.65
2018-01-11T08:31:15.206Z,86.59
2018-01-11T08:33:42.655Z,83.78
2018-01-11T08:36:10.114Z,81.60
2018-01-11T08:38:37.599Z,80.59
2018-01-11T08:41:05.098Z,79.28
2018-01-11T08:43:32.722Z,79.03
2018-01-11T08:46:00.191Z,77.77
2018-01-11T08:48:27.695Z,77.99
2018-01-11T08:50:55.177Z,78.13
2018-01-11T08:53:22.669Z,78.46
2018-01-11T08:55:50.131Z,79.13
2018-01-11T08:58:17.585Z,78.24
2018-01-11T09:00:45.076Z,79.85
2018-01-11T09:03:12.544Z,80.46
2018-01-11T09:05:40.016Z,79.04
2018-01-11T09:08:07.474Z,80.73
2018-01-11T09:10:34.963Z,81.14
2018-01-11T09:13:02.409Z,81.17
2018-01-11T09:15:29.878Z,81.42
2018-01-11T09:17:57.370Z,81.75
2018-01-11T09:20:25.033Z,82.69
2018-01-11T09:22:52.499Z,82.86
2018-01-11T09:25:19.974Z,82.19
2018-01-11T09:27:47.437Z,82.15
2018-01-11T09:30:14.910Z,83.32
2018-01-11T09:32:42.385Z,82.37
2018-01-11T09:35:09.841Z,81.85
2018-01-11T09:37:37.322Z,79.98
2018-01-11T09:40:04.841Z,79.85
2018-01-11T09:42:32.312Z,81.01
2018-01-11T09:44:59.803Z,82.04
2018-01-11T09:47:27.286Z,82.06
2018-01-11T09:49:54.804Z,82.17
2018-01-11T09:52:22.278Z,81.30
2018-01-11T09:54:49.750Z,82.16
2018-01-11T09:57:17.261Z,81.39
2018-01-11T09:59:44.730Z,81.20
2018-01-11T10:02:12.190Z,80.72
2018-01-11T10:04:39.708Z,79.33
2018-01-11T10:07:07.207Z,78.80
2018-01-11T10:09:34.705Z,78.46
2018-01-11T10:12:02.188Z,76.29
2018-01-11T10:14:29.652Z,73.19
2018-01-11T10:16:57.102Z,70.87
2018-01-11T10:19:24.587Z,67.58
2018-01-11T10:21:52.064Z,65.86
2018-01-11T10:24:19.527Z,65.93
2018-01-11T10:26:46.989Z,64.11
2018-01-11T10:29:14.447Z,62.70
2018-01-11T10:31:41.923Z,63.55
2018-01-11T10:34:09.391Z,63.18
2018-01-11T10:36:36.867Z,60.84
2018-01-11T10:39:04.347Z,60.59
2018-01-11T10:41:31.929Z,61.69
2018-01-11T10:43:59.498Z,60.58
2018-01-11T10:46:26.972Z,59.00
2018-01-11T10:48:54.469Z,56.12
2018-01-11T10:51:21.941Z,56.03
2018-01-11T10:53:49.423Z,55.56
2018-01-11T10:56:16.899Z,54.50
2018-01-11T10:58:44.368Z,53.37
2018-01-11T11:01:17.381Z,54.26
2018-01-11T11:03:44.871Z,53.71
2018-01-11T11:06:12.341Z,53.72
2018-01-11T11:08:39.800Z,53.09
2018-01-11T11:11:08.589Z,53.50
2018-01-11T11:13:36.072Z,52.64
2018-01-11T11:16:03.533Z,53.17
2018-01-11T11:18:31.150Z,52.78
2018-01-11T11:20:58.631Z,54.05
2018-01-11T11:23:26.090Z,53.38
2018-01-11T11:25:53.560Z,55.49
2018-01-11T11:28:21.044Z,58.44
2018-01-11T11:30:48.624Z,59.09
2018-01-11T11:33:16.100Z,57.06
2018-01-11T11:35:43.638Z,57.17
2018-01-11T11:38:11.144Z,57.88
2018-01-11T11:40:38.611Z,58.89
2018-01-11T11:43:06.078Z,57.41
2018-01-11T11:45:33.576Z,57.84
2018-01-11T11:48:01.126Z,59.66
2018-01-11T11:50:28.616Z,59.37
2018-01-11T11:52:56.075Z,58.08
2018-01-11T11:55:23.564Z,58.41
2018-01-11T11:57:51.046Z,56.30
2018-01-11T12:00:18.509Z,54.48
2018-01-11T12:02:45.987Z,55.82
2018-01-11T12:05:13.470Z,57.43
2018-01-11T12:07:40.937Z,56.61
2018-01-11T12:10:08.404Z,56.36
2018-01-11T12:12:35.878Z,56.98
2018-01-11T12:15:03.355Z,56.90
2018-01-11T12:17:30.827Z,56.84
2018-01-11T12:19:58.275Z,57.99
2018-01-11T12:22:25.738Z,59.23
2018-01-11T12:24:53.187Z,60.57
2018-01-11T12:27:20.651Z,61.57
2018-01-11T12:29:48.351Z,59.94
2018-01-11T12:32:15.823Z,57.51
2018-01-11T12:34:47.126Z,56.96
2018-01-11T12:37:14.602Z,54.53
2018-01-11T12:39:42.145Z,57.06
2018-01-11T12:42:09.637Z,56.90
2018-01-11T12:44:37.089Z,56.22
2018-01-11T12:47:04.552Z,55.97
2018-01-11T12:49:32.033Z,56.09
2018-01-11T12:51:59.496Z,57.75
2018-01-11T12:54:27.005Z,58.50
2018-01-11T12:56:54.473Z,57.69
2018-01-11T12:59:21.935Z,59.44
2018-01-11T13:01:49.398Z,59.39
2018-01-11T13:04:16.948Z,57.52
2018-01-11T13:06:44.413Z,55.34
2018-01-11T13:09:11.903Z,58.06
2018-01-11T13:11:39.369Z,57.68
2018-01-11T13:14:06.849Z,57.62
2018-01-11T13:16:34.322Z,54.76
2018-01-11T13:19:01.773Z,54.49
2018-01-11T13:21:29.261Z,54.16
2018-01-11T13:23:56.709Z,56.02
2018-01-11T13:26:24.199Z,55.90
2018-01-11T13:28:51.668Z,56.75
2018-01-11T13:31:19.183Z,55.69
2018-01-11T13:33:46.645Z,58.27
2018-01-11T13:36:14.134Z,59.37
2018-01-11T13:38:41.612Z,60.39
2018-01-11T13:41:09.263Z,61.82
2018-01-11T13:43:36.872Z,61.39
2018-01-11T13:46:04.347Z,62.35
2018-01-11T13:48:31.917Z,64.89
2018-01-11T13:50:59.608Z,64.79
2018-01-11T13:53:27.134Z,65.57
2018-01-11T13:55:54.647Z,66.52
2018-01-11T13:58:22.103Z,67.61
2018-01-11T14:00:49.584Z,67.96
2018-01-11T14:03:17.045Z,68.99
2018-01-11T14:05:44.503Z,69.29
2018-01-11T14:08:11.985Z,68.73
2018-01-11T14:10:39.483Z,69.02
2018-01-11T14:13:06.952Z,70.73
2018-01-11T14:15:34.449Z,70.99
2018-01-11T14:18:01.960Z,71.58
2018-01-11T14:20:29.938Z,70.99
2018-01-11T14:22:57.451Z,71.73
2018-01-11T14:25:24.921Z,71.14
2018-01-11T14:27:52.463Z,71.46
2018-01-11T14:30:19.935Z,71.53
2018-01-11T14:32:47.398Z,72.05
2018-01-11T14:35:14.980Z,72.62
2018-01-11T14:37:42.447Z,71.77
2018-01-11T14:40:09.937Z,72.05
2018-01-11T14:42:37.410Z,72.81
2018-01-11T14:45:04.878Z,72.77
2018-01-11T14:47:32.344Z,73.72
2018-01-11T14:49:59.807Z,74.62
2018-01-11T14:52:27.280Z,74.65
2018-01-11T14:54:54.736Z,74.61
2018-01-11T14:57:22.193Z,74.60
2018-01-11T14:59:49.654Z,75.42
2018-01-11T15:02:17.124Z,75.82
2018-01-11T15:04:44.568Z,76.03
2018-01-11T15:07:12.057Z,76.22
2018-01-11T15:09:39.531Z,76.72
2018-01-11T15:12:07.007Z,76.16
2018-01-11T15:14:34.491Z,76.37
2018-01-11T15:17:01.955Z,76.83
2018-01-11T15:19:29.413Z,76.90
2018-01-11T15:21:56.900Z,77.21
2018-01-11T15:24:24.404Z,78.27
2018-01-11T15:26:51.887Z,78.58
2018-01-11T15:29:19.367Z,78.94
2018-01-11T15:31:46.860Z,79.87
2018-01-11T15:34:14.356Z,79.85
2018-01-11T15:36:41.929Z,80.65
2018-01-11T15:39:09.390Z,80.88
2018-01-11T15:41:36.883Z,81.33
2018-01-11T15:44:04.345Z,81.63
2018-01-11T15:46:31.933Z,82.05
2018-01-11T15:48:59.525Z,82.83
2018-01-11T15:51:26.994Z,82.91
2018-01-11T15:53:54.473Z,83.62
2018-01-11T15:56:21.948Z,83.50
2018-01-11T15:58:49.446Z,83.88
2018-01-11T16:01:16.905Z,84.40
2018-01-11T16:03:44.380Z,84.46
2018-01-11T16:06:11.855Z,84.64
2018-01-11T16:08:39.367Z,85.15
2018-01-11T16:11:06.843Z,85.10
2018-01-11T16:13:34.320Z,85.72
2018-01-11T16:16:01.895Z,85.99
2018-01-11T16:18:29.425Z,86.05
2018-01-11T16:20:56.937Z,86.13
2018-01-11T16:23:24.427Z,86.47
2018-01-11T16:25:51.929Z,86.69
2018-01-11T16:28:19.400Z,86.71
2018-01-11T16:30:46.977Z,86.55
2018-01-11T16:33:14.433Z,86.66
2018-01-11T16:35:41.893Z,86.93
2018-01-11T16:38:09.359Z,86.98
2018-01-11T16:40:36.825Z,87.06
2018-01-11T16:43:04.315Z,87.48
2018-01-11T16:45:31.760Z,87.70
2018-01-11T16:48:01.562Z,87.72
2018-01-11T16:50:29.136Z,87.73
2018-01-11T16:52:56.693Z,87.82
2018-01-11T16:55:25.118Z,88.17
2018-01-11T16:57:52.689Z,88.38
2018-01-11T17:00:20.157Z,88.68
2018-01-11T17:02:47.623Z,88.53
2018-01-11T17:05:15.130Z,88.68
2018-01-11T17:07:42.610Z,88.23
2018-01-11T17:10:10.116Z,88.70
2018-01-11T17:12:37.573Z,88.59
2018-01-11T17:15:05.046Z,88.66
2018-01-11T17:17:32.523Z,88.34
2018-01-11T17:20:00.016Z,88.34
2018-01-11T17:22:27.484Z,88.34
2018-01-11T17:24:55.006Z,88.60
2018-01-11T17:27:22.499Z,88.91
2018-01-11T17:29:49.972Z,88.96
2018-01-11T17:32:17.437Z,89.07
2018-01-11T17:34:44.888Z,89.03
2018-01-11T17:37:12.341Z,89.06
2018-01-11T17:39:39.791Z,89.01
2018-01-11T17:42:07.254Z,89.01
2018-01-11T17:44:34.718Z,88.84
2018-01-11T17:47:02.198Z,88.96
2018-01-11T17:49:29.679Z,88.89
2018-01-11T17:51:57.173Z,88.98
2018-01-11T17:54:24.658Z,89.06
2018-01-11T17:56:52.158Z,89.30
2018-01-11T17:59:19.613Z,89.46
2018-01-11T18:01:47.098Z,89.50
2018-01-11T18:04:14.574Z,89.57
2018-01-11T18:06:49.616Z,89.57
2018-01-11T18:09:17.091Z,89.52
2018-01-11T18:11:44.549Z,89.74
2018-01-11T18:14:12.031Z,90.05
2018-01-11T18:16:39.502Z,90.28
2018-01-11T18:19:06.973Z,90.36
2018-01-11T18:21:34.433Z,90.55
2018-01-11T18:24:02.018Z,90.83
2018-01-11T18:26:29.520Z,90.79
2018-01-11T18:28:57.147Z,90.57
2018-01-11T18:31:24.637Z,90.87
2018-01-11T18:33:52.105Z,91.25
2018-01-11T18:36:19.595Z,91.04
2018-01-11T18:38:47.060Z,90.80
2018-01-11T18:41:14.577Z,90.54
2018-01-11T18:43:42.034Z,90.31
2018-01-11T18:46:09.562Z,90.02
2018-01-11T18:48:37.011Z,89.95
2018-01-11T18:51:04.482Z,90.04
2018-01-11T18:53:31.988Z,90.11
2018-01-11T18:55:59.507Z,90.07
2018-01-11T18:58:26.970Z,89.85
2018-01-11T19:00:54.468Z,90.12
2018-01-11T19:03:21.937Z,89.84
2018-01-11T19:05:49.471Z,89.78
2018-01-11T19:08:16.914Z,89.72
2018-01-11T19:10:44.379Z,89.85
2018-01-11T19:13:11.840Z,89.85
2018-01-11T19:15:39.375Z,90.48
2018-01-11T19:18:06.823Z,90.74
2018-01-11T19:20:34.276Z,90.42
2018-01-11T19:23:01.746Z,90.11
2018-01-11T19:25:29.232Z,90.07
2018-01-11T19:27:56.723Z,90.09
2018-01-11T19:30:24.233Z,89.77
2018-01-11T19:32:51.753Z,89.32
2018-01-11T19:35:19.204Z,89.47
2018-01-11T19:37:46.677Z,89.16
2018-01-11T19:40:14.166Z,89.35
2018-01-11T19:42:41.684Z,88.97
2018-01-11T19:45:09.146Z,88.91
2018-01-11T19:47:36.597Z,88.67
2018-01-11T19:50:04.060Z,88.47
2018-01-11T19:52:31.522Z,88.95
2018-01-11T19:54:59.464Z,89.56
2018-01-11T19:57:27.036Z,89.75
2018-01-11T19:59:54.554Z,89.67
2018-01-11T20:02:22.054Z,90.04
2018-01-11T20:04:49.566Z,90.29
2018-01-11T20:07:17.019Z,90.48
2018-01-11T20:09:44.547Z,90.58
2018-01-11T20:12:12.063Z,90.50
2018-01-11T20:14:39.533Z,90.52
2018-01-11T20:17:06.992Z,90.30
2018-01-11T20:19:34.460Z,89.86
2018-01-11T20:22:01.949Z,89.48
2018-01-11T20:24:29.421Z,89.22
2018-01-11T20:26:56.952Z,89.09
2018-01-11T20:29:24.418Z,89.31
2018-01-11T20:31:51.878Z,89.03
2018-01-11T20:34:19.358Z,88.96
2018-01-11T20:36:46.864Z,88.76
2018-01-11T20:39:14.350Z,88.87
2018-01-11T20:41:41.824Z,88.59
2018-01-11T20:44:09.322Z,88.33
2018-01-11T20:46:36.809Z,88.05
2018-01-11T20:49:04.267Z,88.13
2018-01-11T20:51:31.750Z,87.95
2018-01-11T20:53:59.218Z,87.98
2018-01-11T20:56:26.690Z,87.80
2018-01-11T20:58:54.185Z,87.58
2018-01-11T21:01:21.661Z,88.22
2018-01-11T21:03:49.173Z,88.22
2018-01-11T21:06:16.654Z,88.14
2018-01-11T21:08:44.216Z,88.29
2018-01-11T21:11:11.689Z,88.01
2018-01-11T21:13:39.179Z,88.09
2018-01-11T21:16:06.652Z,88.22
2018-01-11T21:18:34.110Z,88.13
2018-01-11T21:21:01.588Z,88.44
2018-01-11T21:23:36.355Z,88.20
2018-01-11T21:26:12.190Z,88.50
2018-01-11T21:28:39.736Z,88.28
2018-01-11T21:31:07.194Z,88.14
2018-01-11T21:33:34.662Z,88.14
2018-01-11T21:36:02.204Z,88.11
2018-01-11T21:38:29.761Z,87.46
2018-01-11T21:40:57.234Z,87.52
2018-01-11T21:43:24.729Z,87.89
2018-01-11T21:45:52.219Z,88.46
2018-01-11T21:48:19.688Z,88.68
2018-01-11T21:50:47.139Z,89.27
2018-01-11T21:53:14.653Z,89.46
2018-01-11T21:55:42.126Z,89.67
2018-01-11T21:58:10.350Z,89.63
2018-01-11T22:00:37.828Z,89.93
2018-01-11T22:03:05.288Z,89.37
2018-01-11T22:05:32.762Z,89.21
2018-01-11T22:08:00.273Z,89.28
2018-01-11T22:10:27.734Z,89.07
2018-01-11T22:12:55.226Z,89.54
2018-01-11T22:15:22.672Z,89.89
2018-01-11T22:17:50.139Z,89.91
2018-01-11T22:20:17.594Z,89.68
2018-01-11T22:22:45.078Z,89.58
2018-01-11T22:25:12.535Z,89.29
2018-01-11T22:27:40.039Z,88.81
2018-01-11T22:30:07.505Z,88.87
2018-01-11T22:32:34.965Z,88.88
2018-01-11T22:35:02.440Z,88.56
2018-01-11T22:37:29.910Z,88.72
2018-01-11T22:39:57.375Z,88.62
2018-01-11T22:42:24.835Z,89.24
2018-01-11T22:44:52.304Z,89.27
2018-01-11T22:47:19.747Z,89.41
2018-01-11T22:49:47.200Z,89.16
2018-01-11T22:52:14.655Z,89.34
2018-01-11T22:54:42.356Z,89.14
2018-01-11T22:57:09.822Z,88.80
2018-01-11T22:59:37.288Z,88.76
2018-01-11T23:02:04.739Z,88.49
2018-01-11T23:04:32.186Z,88.51
2018-01-11T23:06:59.669Z,88.34
2018-01-11T23:09:27.140Z,88.27
2018-01-11T23:11:54.630Z,88.35
2018-01-11T23:14:22.083Z,88.45
2018-01-11T23:16:49.570Z,88.44
2018-01-11T23:19:17.029Z,88.54
2018-01-11T23:21:44.510Z,89.17
2018-01-11T23:24:12.003Z,89.54
2018-01-11T23:26:39.466Z,89.89
2018-01-11T23:29:17.390Z,89.99
2018-01-11T23:31:45.662Z,90.11
2018-01-11T23:34:14.849Z,89.67
2018-01-11T23:36:42.328Z,89.70
2018-01-11T23:39:09.805Z,89.79
2018-01-11T23:41:37.256Z,89.85
2018-01-11T23:44:04.740Z,89.77
2018-01-11T23:46:32.214Z,89.68
2018-01-11T23:48:59.684Z,89.30
2018-01-11T23:51:27.146Z,89.60
2018-01-11T23:53:54.619Z,89.41
2018-01-11T23:56:22.098Z,88.93
2018-01-11T23:58:49.581Z,88.77
